sensor_id;sensor_type;location;lat;lon;timestamp;P1;durP1;ratioP1;P2;durP2;ratioP2
15669;SDS011;18524;45.190;5.732;2023-11-19T00:03:44;16.40;;;13.30;;
15669;SDS011;18524;45.190;5.732;2023-11-19T00:08:34;24.67;;;15.13;;
15669;SDS011;18524;45.190;5.732;2023-11-19T00:13:24;36.27;;;17.70;;
15669;SDS011;18524;45.190;5.732;2023-11-19T00:18:16;26.07;;;15.27;;
15669;SDS011;18524;45.190;5.732;2023-11-19T00:23:06;30.40;;;16.87;;
15669;SDS011;18524;45.190;5.732;2023-11-19T00:27:56;24.23;;;15.53;;
15669;SDS011;18524;45.190;5.732;2023-11-19T00:32:47;24.73;;;16.90;;
15669;SDS011;18524;45.190;5.732;2023-11-19T00:37:37;18.77;;;14.43;;
15669;SDS011;18524;45.190;5.732;2023-11-19T00:42:27;18.63;;;14.00;;
15669;SDS011;18524;45.190;5.732;2023-11-19T00:47:18;18.50;;;13.77;;
15669;SDS011;18524;45.190;5.732;2023-11-19T00:52:10;17.57;;;14.07;;
15669;SDS011;18524;45.190;5.732;2023-11-19T00:57:00;20.27;;;14.33;;
15669;SDS011;18524;45.190;5.732;2023-11-19T01:01:51;22.27;;;14.93;;
15669;SDS011;18524;45.190;5.732;2023-11-19T01:06:41;20.30;;;14.23;;
15669;SDS011;18524;45.190;5.732;2023-11-19T01:11:32;18.27;;;13.47;;
15669;SDS011;18524;45.190;5.732;2023-11-19T01:16:22;19.90;;;14.40;;
15669;SDS011;18524;45.190;5.732;2023-11-19T01:21:13;17.53;;;13.70;;
15669;SDS011;18524;45.190;5.732;2023-11-19T01:26:04;16.87;;;13.77;;
15669;SDS011;18524;45.190;5.732;2023-11-19T01:30:55;17.97;;;13.60;;
15669;SDS011;18524;45.190;5.732;2023-11-19T01:35:45;18.87;;;13.77;;
15669;SDS011;18524;45.190;5.732;2023-11-19T01:40:36;16.27;;;13.13;;
15669;SDS011;18524;45.190;5.732;2023-11-19T01:45:27;18.17;;;12.97;;
15669;SDS011;18524;45.190;5.732;2023-11-19T01:50:23;18.23;;;13.93;;
15669;SDS011;18524;45.190;5.732;2023-11-19T01:55:14;17.53;;;13.20;;
15669;SDS011;18524;45.190;5.732;2023-11-19T02:00:06;17.30;;;12.80;;
15669;SDS011;18524;45.190;5.732;2023-11-19T02:04:57;15.33;;;12.77;;
15669;SDS011;18524;45.190;5.732;2023-11-19T02:09:47;15.30;;;11.20;;
15669;SDS011;18524;45.190;5.732;2023-11-19T02:14:37;12.03;;;9.60;;
15669;SDS011;18524;45.190;5.732;2023-11-19T02:19:28;12.43;;;9.73;;
15669;SDS011;18524;45.190;5.732;2023-11-19T02:24:19;14.40;;;10.17;;
15669;SDS011;18524;45.190;5.732;2023-11-19T02:29:13;13.23;;;10.73;;
15669;SDS011;18524;45.190;5.732;2023-11-19T02:34:03;13.73;;;11.03;;
15669;SDS011;18524;45.190;5.732;2023-11-19T02:38:54;14.83;;;11.70;;
15669;SDS011;18524;45.190;5.732;2023-11-19T02:43:45;16.10;;;12.47;;
15669;SDS011;18524;45.190;5.732;2023-11-19T02:48:35;16.27;;;12.00;;
15669;SDS011;18524;45.190;5.732;2023-11-19T02:53:25;14.53;;;11.90;;
15669;SDS011;18524;45.190;5.732;2023-11-19T02:58:18;14.73;;;11.50;;
15669;SDS011;18524;45.190;5.732;2023-11-19T03:03:13;14.47;;;10.90;;
15669;SDS011;18524;45.190;5.732;2023-11-19T03:08:12;14.17;;;10.80;;
15669;SDS011;18524;45.190;5.732;2023-11-19T03:13:03;13.10;;;10.63;;
15669;SDS011;18524;45.190;5.732;2023-11-19T03:17:53;14.90;;;10.90;;
15669;SDS011;18524;45.190;5.732;2023-11-19T03:22:44;14.83;;;11.30;;
15669;SDS011;18524;45.190;5.732;2023-11-19T03:27:35;12.53;;;10.67;;
15669;SDS011;18524;45.190;5.732;2023-11-19T03:32:26;12.13;;;9.47;;
15669;SDS011;18524;45.190;5.732;2023-11-19T03:37:17;13.50;;;9.70;;
15669;SDS011;18524;45.190;5.732;2023-11-19T03:42:07;12.73;;;9.83;;
15669;SDS011;18524;45.190;5.732;2023-11-19T03:46:58;13.47;;;10.50;;
15669;SDS011;18524;45.190;5.732;2023-11-19T03:51:48;14.50;;;11.00;;
15669;SDS011;18524;45.190;5.732;2023-11-19T03:56:38;15.27;;;11.37;;
15669;SDS011;18524;45.190;5.732;2023-11-19T04:01:28;14.63;;;11.20;;
15669;SDS011;18524;45.190;5.732;2023-11-19T04:06:19;14.87;;;11.30;;
15669;SDS011;18524;45.190;5.732;2023-11-19T04:11:09;15.57;;;11.80;;
15669;SDS011;18524;45.190;5.732;2023-11-19T04:16:00;15.60;;;12.00;;
15669;SDS011;18524;45.190;5.732;2023-11-19T04:20:51;16.00;;;12.43;;
15669;SDS011;18524;45.190;5.732;2023-11-19T04:25:41;17.20;;;11.70;;
15669;SDS011;18524;45.190;5.732;2023-11-19T04:30:32;15.17;;;10.67;;
15669;SDS011;18524;45.190;5.732;2023-11-19T04:35:22;14.60;;;11.50;;
15669;SDS011;18524;45.190;5.732;2023-11-19T04:40:12;15.97;;;11.63;;
15669;SDS011;18524;45.190;5.732;2023-11-19T04:45:03;14.47;;;10.93;;
15669;SDS011;18524;45.190;5.732;2023-11-19T04:49:56;13.53;;;10.33;;
15669;SDS011;18524;45.190;5.732;2023-11-19T04:54:46;14.40;;;10.90;;
15669;SDS011;18524;45.190;5.732;2023-11-19T04:59:38;12.13;;;9.63;;
15669;SDS011;18524;45.190;5.732;2023-11-19T05:04:28;14.20;;;10.30;;
15669;SDS011;18524;45.190;5.732;2023-11-19T05:09:18;11.63;;;9.20;;
15669;SDS011;18524;45.190;5.732;2023-11-19T05:14:09;14.60;;;10.50;;
15669;SDS011;18524;45.190;5.732;2023-11-19T05:18:59;12.07;;;10.33;;
15669;SDS011;18524;45.190;5.732;2023-11-19T05:23:49;12.13;;;9.87;;
15669;SDS011;18524;45.190;5.732;2023-11-19T05:28:40;13.67;;;10.50;;
15669;SDS011;18524;45.190;5.732;2023-11-19T05:33:30;15.27;;;11.67;;
15669;SDS011;18524;45.190;5.732;2023-11-19T05:38:20;15.97;;;11.40;;
15669;SDS011;18524;45.190;5.732;2023-11-19T05:43:11;16.67;;;12.73;;
15669;SDS011;18524;45.190;5.732;2023-11-19T05:48:01;16.50;;;13.30;;
15669;SDS011;18524;45.190;5.732;2023-11-19T05:52:54;15.57;;;13.03;;
15669;SDS011;18524;45.190;5.732;2023-11-19T05:57:44;15.37;;;11.70;;
15669;SDS011;18524;45.190;5.732;2023-11-19T06:02:35;16.60;;;11.67;;
15669;SDS011;18524;45.190;5.732;2023-11-19T06:07:27;14.90;;;12.90;;
15669;SDS011;18524;45.190;5.732;2023-11-19T06:12:18;15.13;;;12.23;;
15669;SDS011;18524;45.190;5.732;2023-11-19T06:17:08;13.60;;;11.13;;
15669;SDS011;18524;45.190;5.732;2023-11-19T06:22:01;16.73;;;11.80;;
15669;SDS011;18524;45.190;5.732;2023-11-19T06:26:51;13.43;;;12.00;;
15669;SDS011;18524;45.190;5.732;2023-11-19T06:31:41;15.13;;;12.43;;
15669;SDS011;18524;45.190;5.732;2023-11-19T06:36:32;9.67;;;8.63;;
15669;SDS011;18524;45.190;5.732;2023-11-19T06:41:22;10.93;;;9.00;;
15669;SDS011;18524;45.190;5.732;2023-11-19T06:46:16;10.97;;;9.07;;
15669;SDS011;18524;45.190;5.732;2023-11-19T06:51:06;11.20;;;8.57;;
15669;SDS011;18524;45.190;5.732;2023-11-19T06:55:57;11.67;;;8.10;;
15669;SDS011;18524;45.190;5.732;2023-11-19T07:00:47;10.10;;;7.63;;
15669;SDS011;18524;45.190;5.732;2023-11-19T07:05:39;9.50;;;7.50;;
15669;SDS011;18524;45.190;5.732;2023-11-19T07:10:29;11.10;;;8.17;;
15669;SDS011;18524;45.190;5.732;2023-11-19T07:15:20;9.00;;;7.20;;
15669;SDS011;18524;45.190;5.732;2023-11-19T07:20:10;9.53;;;7.83;;
15669;SDS011;18524;45.190;5.732;2023-11-19T07:25:05;8.03;;;7.20;;
15669;SDS011;18524;45.190;5.732;2023-11-19T07:29:55;16.90;;;12.37;;
15669;SDS011;18524;45.190;5.732;2023-11-19T07:34:46;14.70;;;12.40;;
15669;SDS011;18524;45.190;5.732;2023-11-19T07:39:36;14.90;;;11.83;;
15669;SDS011;18524;45.190;5.732;2023-11-19T07:44:30;14.27;;;11.10;;
15669;SDS011;18524;45.190;5.732;2023-11-19T07:49:21;14.53;;;10.67;;
15669;SDS011;18524;45.190;5.732;2023-11-19T07:54:11;12.37;;;10.23;;
15669;SDS011;18524;45.190;5.732;2023-11-19T07:59:02;11.30;;;8.87;;
15669;SDS011;18524;45.190;5.732;2023-11-19T08:03:52;12.00;;;10.70;;
15669;SDS011;18524;45.190;5.732;2023-11-19T08:08:44;9.43;;;7.80;;
15669;SDS011;18524;45.190;5.732;2023-11-19T08:13:35;8.80;;;7.90;;
15669;SDS011;18524;45.190;5.732;2023-11-19T08:18:25;8.47;;;6.90;;
15669;SDS011;18524;45.190;5.732;2023-11-19T08:23:15;9.20;;;6.87;;
15669;SDS011;18524;45.190;5.732;2023-11-19T08:28:06;8.77;;;7.43;;
15669;SDS011;18524;45.190;5.732;2023-11-19T08:32:56;9.07;;;7.70;;
15669;SDS011;18524;45.190;5.732;2023-11-19T08:37:46;12.83;;;7.90;;
15669;SDS011;18524;45.190;5.732;2023-11-19T08:42:37;8.50;;;7.60;;
15669;SDS011;18524;45.190;5.732;2023-11-19T08:47:29;8.80;;;7.60;;
15669;SDS011;18524;45.190;5.732;2023-11-19T08:52:19;9.53;;;7.37;;
15669;SDS011;18524;45.190;5.732;2023-11-19T08:57:09;9.60;;;7.97;;
15669;SDS011;18524;45.190;5.732;2023-11-19T09:02:00;9.60;;;7.57;;
15669;SDS011;18524;45.190;5.732;2023-11-19T09:06:50;9.80;;;6.37;;
15669;SDS011;18524;45.190;5.732;2023-11-19T09:11:41;7.73;;;6.30;;
15669;SDS011;18524;45.190;5.732;2023-11-19T09:16:32;9.77;;;8.60;;
15669;SDS011;18524;45.190;5.732;2023-11-19T09:21:22;11.67;;;8.33;;
15669;SDS011;18524;45.190;5.732;2023-11-19T09:26:12;11.33;;;7.53;;
15669;SDS011;18524;45.190;5.732;2023-11-19T09:31:12;10.47;;;8.73;;
15669;SDS011;18524;45.190;5.732;2023-11-19T09:36:03;8.23;;;7.33;;
15669;SDS011;18524;45.190;5.732;2023-11-19T09:40:54;7.47;;;4.90;;
15669;SDS011;18524;45.190;5.732;2023-11-19T09:45:48;5.20;;;4.70;;
15669;SDS011;18524;45.190;5.732;2023-11-19T09:50:40;6.87;;;5.07;;
15669;SDS011;18524;45.190;5.732;2023-11-19T09:55:31;8.10;;;6.97;;
15669;SDS011;18524;45.190;5.732;2023-11-19T10:00:21;7.60;;;6.13;;
15669;SDS011;18524;45.190;5.732;2023-11-19T10:05:11;5.80;;;5.20;;
15669;SDS011;18524;45.190;5.732;2023-11-19T10:10:03;5.20;;;4.60;;
15669;SDS011;18524;45.190;5.732;2023-11-19T10:14:55;6.80;;;6.13;;
15669;SDS011;18524;45.190;5.732;2023-11-19T10:19:46;5.27;;;4.73;;
15669;SDS011;18524;45.190;5.732;2023-11-19T10:24:37;5.47;;;4.77;;
15669;SDS011;18524;45.190;5.732;2023-11-19T10:29:29;6.20;;;4.70;;
15669;SDS011;18524;45.190;5.732;2023-11-19T10:34:24;5.10;;;4.10;;
15669;SDS011;18524;45.190;5.732;2023-11-19T10:39:16;4.83;;;4.33;;
15669;SDS011;18524;45.190;5.732;2023-11-19T10:44:06;4.77;;;4.33;;
15669;SDS011;18524;45.190;5.732;2023-11-19T10:48:56;5.20;;;4.17;;
15669;SDS011;18524;45.190;5.732;2023-11-19T10:53:47;4.23;;;3.73;;
15669;SDS011;18524;45.190;5.732;2023-11-19T10:58:42;5.10;;;3.60;;
15669;SDS011;18524;45.190;5.732;2023-11-19T11:03:38;4.30;;;3.90;;
15669;SDS011;18524;45.190;5.732;2023-11-19T11:08:29;4.60;;;4.10;;
15669;SDS011;18524;45.190;5.732;2023-11-19T11:13:22;5.23;;;4.33;;
15669;SDS011;18524;45.190;5.732;2023-11-19T11:18:13;4.50;;;4.10;;
15669;SDS011;18524;45.190;5.732;2023-11-19T11:23:28;3.53;;;3.13;;
15669;SDS011;18524;45.190;5.732;2023-11-19T11:28:35;5.07;;;4.03;;
15669;SDS011;18524;45.190;5.732;2023-11-19T11:38:51;4.13;;;3.50;;
15669;SDS011;18524;45.190;5.732;2023-11-19T11:43:43;4.77;;;4.27;;
15669;SDS011;18524;45.190;5.732;2023-11-19T11:48:35;5.00;;;4.60;;
15669;SDS011;18524;45.190;5.732;2023-11-19T11:53:38;5.73;;;4.20;;
15669;SDS011;18524;45.190;5.732;2023-11-19T11:58:29;5.43;;;4.30;;
15669;SDS011;18524;45.190;5.732;2023-11-19T12:03:21;6.37;;;4.90;;
15669;SDS011;18524;45.190;5.732;2023-11-19T12:08:12;5.20;;;4.10;;
15669;SDS011;18524;45.190;5.732;2023-11-19T12:13:06;6.80;;;4.30;;
15669;SDS011;18524;45.190;5.732;2023-11-19T12:17:57;4.70;;;4.30;;
15669;SDS011;18524;45.190;5.732;2023-11-19T12:22:47;4.87;;;4.00;;
15669;SDS011;18524;45.190;5.732;2023-11-19T12:27:39;5.83;;;4.07;;
15669;SDS011;18524;45.190;5.732;2023-11-19T12:32:41;5.03;;;4.53;;
15669;SDS011;18524;45.190;5.732;2023-11-19T12:37:32;5.57;;;4.03;;
15669;SDS011;18524;45.190;5.732;2023-11-19T12:42:34;6.20;;;4.27;;
15669;SDS011;18524;45.190;5.732;2023-11-19T12:47:26;4.60;;;3.83;;
15669;SDS011;18524;45.190;5.732;2023-11-19T12:52:16;5.23;;;4.50;;
15669;SDS011;18524;45.190;5.732;2023-11-19T12:57:07;4.70;;;4.30;;
15669;SDS011;18524;45.190;5.732;2023-11-19T13:01:58;3.80;;;3.50;;
15669;SDS011;18524;45.190;5.732;2023-11-19T13:06:48;4.27;;;3.50;;
15669;SDS011;18524;45.190;5.732;2023-11-19T13:11:39;4.73;;;3.60;;
15669;SDS011;18524;45.190;5.732;2023-11-19T13:16:31;7.03;;;5.43;;
15669;SDS011;18524;45.190;5.732;2023-11-19T13:21:21;5.93;;;5.17;;
15669;SDS011;18524;45.190;5.732;2023-11-19T13:26:11;7.00;;;5.47;;
15669;SDS011;18524;45.190;5.732;2023-11-19T13:31:03;9.17;;;5.37;;
15669;SDS011;18524;45.190;5.732;2023-11-19T13:35:54;8.60;;;6.17;;
15669;SDS011;18524;45.190;5.732;2023-11-19T13:40:44;6.37;;;5.50;;
15669;SDS011;18524;45.190;5.732;2023-11-19T13:45:34;7.17;;;5.70;;
15669;SDS011;18524;45.190;5.732;2023-11-19T13:50:25;9.37;;;6.03;;
15669;SDS011;18524;45.190;5.732;2023-11-19T13:55:16;6.03;;;5.33;;
15669;SDS011;18524;45.190;5.732;2023-11-19T14:00:07;7.93;;;5.50;;
15669;SDS011;18524;45.190;5.732;2023-11-19T14:05:14;6.77;;;5.87;;
15669;SDS011;18524;45.190;5.732;2023-11-19T14:10:07;8.87;;;6.33;;
15669;SDS011;18524;45.190;5.732;2023-11-19T14:15:01;6.53;;;5.67;;
15669;SDS011;18524;45.190;5.732;2023-11-19T14:19:52;7.27;;;5.60;;
15669;SDS011;18524;45.190;5.732;2023-11-19T14:24:42;7.03;;;5.20;;
15669;SDS011;18524;45.190;5.732;2023-11-19T14:29:33;6.90;;;4.70;;
15669;SDS011;18524;45.190;5.732;2023-11-19T14:34:24;3.87;;;3.47;;
15669;SDS011;18524;45.190;5.732;2023-11-19T14:39:16;4.40;;;3.73;;
15669;SDS011;18524;45.190;5.732;2023-11-19T14:44:06;4.10;;;2.97;;
15669;SDS011;18524;45.190;5.732;2023-11-19T14:48:57;6.00;;;4.20;;
15669;SDS011;18524;45.190;5.732;2023-11-19T14:53:47;6.03;;;4.77;;
15669;SDS011;18524;45.190;5.732;2023-11-19T14:58:38;13.03;;;6.87;;
15669;SDS011;18524;45.190;5.732;2023-11-19T15:03:28;8.30;;;5.23;;
15669;SDS011;18524;45.190;5.732;2023-11-19T15:08:18;4.97;;;4.00;;
15669;SDS011;18524;45.190;5.732;2023-11-19T15:13:09;5.73;;;4.43;;
15669;SDS011;18524;45.190;5.732;2023-11-19T15:17:59;4.73;;;4.13;;
15669;SDS011;18524;45.190;5.732;2023-11-19T15:22:50;4.67;;;4.23;;
15669;SDS011;18524;45.190;5.732;2023-11-19T15:27:40;4.40;;;4.00;;
15669;SDS011;18524;45.190;5.732;2023-11-19T15:32:31;4.60;;;3.63;;
15669;SDS011;18524;45.190;5.732;2023-11-19T15:37:21;4.47;;;3.83;;
15669;SDS011;18524;45.190;5.732;2023-11-19T15:42:12;6.00;;;3.90;;
15669;SDS011;18524;45.190;5.732;2023-11-19T15:47:02;4.10;;;3.70;;
15669;SDS011;18524;45.190;5.732;2023-11-19T15:51:53;4.50;;;4.10;;
15669;SDS011;18524;45.190;5.732;2023-11-19T15:56:43;4.03;;;3.63;;
15669;SDS011;18524;45.190;5.732;2023-11-19T16:01:35;5.83;;;4.40;;
15669;SDS011;18524;45.190;5.732;2023-11-19T16:06:25;5.00;;;4.27;;
15669;SDS011;18524;45.190;5.732;2023-11-19T16:11:16;5.10;;;4.47;;
15669;SDS011;18524;45.190;5.732;2023-11-19T16:16:07;6.03;;;5.53;;
15669;SDS011;18524;45.190;5.732;2023-11-19T16:20:57;9.10;;;8.30;;
15669;SDS011;18524;45.190;5.732;2023-11-19T16:25:48;8.80;;;7.13;;
15669;SDS011;18524;45.190;5.732;2023-11-19T16:30:39;7.10;;;5.73;;
15669;SDS011;18524;45.190;5.732;2023-11-19T16:35:31;7.60;;;5.80;;
15669;SDS011;18524;45.190;5.732;2023-11-19T16:40:21;5.87;;;5.13;;
15669;SDS011;18524;45.190;5.732;2023-11-19T16:45:11;5.97;;;4.97;;
15669;SDS011;18524;45.190;5.732;2023-11-19T16:50:03;7.13;;;4.93;;
15669;SDS011;18524;45.190;5.732;2023-11-19T16:54:57;6.63;;;5.23;;
15669;SDS011;18524;45.190;5.732;2023-11-19T16:59:48;6.87;;;5.37;;
15669;SDS011;18524;45.190;5.732;2023-11-19T17:04:44;8.00;;;6.30;;
15669;SDS011;18524;45.190;5.732;2023-11-19T17:09:34;9.07;;;6.73;;
15669;SDS011;18524;45.190;5.732;2023-11-19T17:14:25;8.07;;;6.10;;
15669;SDS011;18524;45.190;5.732;2023-11-19T17:19:15;6.47;;;5.13;;
15669;SDS011;18524;45.190;5.732;2023-11-19T17:24:05;5.80;;;5.20;;
15669;SDS011;18524;45.190;5.732;2023-11-19T17:28:56;8.00;;;5.83;;
15669;SDS011;18524;45.190;5.732;2023-11-19T17:33:47;8.63;;;6.10;;
15669;SDS011;18524;45.190;5.732;2023-11-19T17:38:37;7.73;;;6.10;;
15669;SDS011;18524;45.190;5.732;2023-11-19T17:43:28;8.43;;;7.43;;
15669;SDS011;18524;45.190;5.732;2023-11-19T17:48:18;8.83;;;7.57;;
15669;SDS011;18524;45.190;5.732;2023-11-19T17:53:08;10.43;;;8.57;;
15669;SDS011;18524;45.190;5.732;2023-11-19T17:57:59;9.20;;;8.20;;
15669;SDS011;18524;45.190;5.732;2023-11-19T18:02:49;9.10;;;8.20;;
15669;SDS011;18524;45.190;5.732;2023-11-19T18:07:41;9.30;;;8.00;;
15669;SDS011;18524;45.190;5.732;2023-11-19T18:12:32;10.93;;;8.43;;
15669;SDS011;18524;45.190;5.732;2023-11-19T18:17:23;11.03;;;8.60;;
15669;SDS011;18524;45.190;5.732;2023-11-19T18:22:13;10.80;;;8.40;;
15669;SDS011;18524;45.190;5.732;2023-11-19T18:27:03;10.33;;;9.13;;
15669;SDS011;18524;45.190;5.732;2023-11-19T18:31:54;11.90;;;9.87;;
15669;SDS011;18524;45.190;5.732;2023-11-19T18:36:45;23.67;;;21.10;;
15669;SDS011;18524;45.190;5.732;2023-11-19T18:41:38;28.33;;;22.53;;
15669;SDS011;18524;45.190;5.732;2023-11-19T18:46:32;15.20;;;11.77;;
15669;SDS011;18524;45.190;5.732;2023-11-19T18:51:23;45.70;;;36.67;;
15669;SDS011;18524;45.190;5.732;2023-11-19T18:56:13;22.13;;;19.63;;
15669;SDS011;18524;45.190;5.732;2023-11-19T19:01:04;17.23;;;13.50;;
15669;SDS011;18524;45.190;5.732;2023-11-19T19:05:55;11.93;;;9.87;;
15669;SDS011;18524;45.190;5.732;2023-11-19T19:10:45;12.50;;;10.20;;
15669;SDS011;18524;45.190;5.732;2023-11-19T19:15:35;14.20;;;10.83;;
15669;SDS011;18524;45.190;5.732;2023-11-19T19:20:26;13.50;;;11.40;;
15669;SDS011;18524;45.190;5.732;2023-11-19T19:25:16;13.07;;;11.03;;
15669;SDS011;18524;45.190;5.732;2023-11-19T19:30:08;16.03;;;12.03;;
15669;SDS011;18524;45.190;5.732;2023-11-19T19:35:00;15.83;;;12.90;;
15669;SDS011;18524;45.190;5.732;2023-11-19T19:39:50;20.33;;;14.87;;
15669;SDS011;18524;45.190;5.732;2023-11-19T19:44:41;18.47;;;14.80;;
15669;SDS011;18524;45.190;5.732;2023-11-19T19:49:31;16.17;;;14.30;;
15669;SDS011;18524;45.190;5.732;2023-11-19T19:54:21;15.30;;;13.10;;
15669;SDS011;18524;45.190;5.732;2023-11-19T19:59:13;16.30;;;13.07;;
15669;SDS011;18524;45.190;5.732;2023-11-19T20:04:03;16.03;;;12.47;;
15669;SDS011;18524;45.190;5.732;2023-11-19T20:08:54;15.97;;;13.27;;
15669;SDS011;18524;45.190;5.732;2023-11-19T20:13:44;16.90;;;12.70;;
15669;SDS011;18524;45.190;5.732;2023-11-19T20:18:35;16.50;;;14.70;;
15669;SDS011;18524;45.190;5.732;2023-11-19T20:23:26;15.83;;;12.70;;
15669;SDS011;18524;45.190;5.732;2023-11-19T20:28:17;19.20;;;15.63;;
15669;SDS011;18524;45.190;5.732;2023-11-19T20:33:07;17.03;;;15.23;;
15669;SDS011;18524;45.190;5.732;2023-11-19T20:37:57;17.10;;;13.77;;
15669;SDS011;18524;45.190;5.732;2023-11-19T20:42:48;18.27;;;13.77;;
15669;SDS011;18524;45.190;5.732;2023-11-19T20:47:40;15.83;;;13.57;;
15669;SDS011;18524;45.190;5.732;2023-11-19T20:52:31;17.23;;;13.37;;
15669;SDS011;18524;45.190;5.732;2023-11-19T20:57:22;19.67;;;14.70;;
15669;SDS011;18524;45.190;5.732;2023-11-19T21:02:12;23.57;;;17.93;;
15669;SDS011;18524;45.190;5.732;2023-11-19T21:07:04;18.27;;;15.27;;
15669;SDS011;18524;45.190;5.732;2023-11-19T21:11:54;21.33;;;17.20;;
15669;SDS011;18524;45.190;5.732;2023-11-19T21:16:44;27.20;;;19.80;;
15669;SDS011;18524;45.190;5.732;2023-11-19T21:21:35;26.20;;;21.13;;
15669;SDS011;18524;45.190;5.732;2023-11-19T21:26:25;23.87;;;18.33;;
15669;SDS011;18524;45.190;5.732;2023-11-19T21:31:16;22.40;;;17.00;;
15669;SDS011;18524;45.190;5.732;2023-11-19T21:36:07;20.23;;;16.93;;
15669;SDS011;18524;45.190;5.732;2023-11-19T21:40:57;20.83;;;16.20;;
15669;SDS011;18524;45.190;5.732;2023-11-19T21:45:50;18.60;;;16.03;;
15669;SDS011;18524;45.190;5.732;2023-11-19T21:50:40;19.83;;;16.57;;
15669;SDS011;18524;45.190;5.732;2023-11-19T21:55:32;21.33;;;17.03;;
15669;SDS011;18524;45.190;5.732;2023-11-19T22:00:22;21.23;;;16.03;;
15669;SDS011;18524;45.190;5.732;2023-11-19T22:05:13;21.40;;;15.73;;
15669;SDS011;18524;45.190;5.732;2023-11-19T22:10:04;22.33;;;17.13;;
15669;SDS011;18524;45.190;5.732;2023-11-19T22:14:54;19.40;;;15.00;;
15669;SDS011;18524;45.190;5.732;2023-11-19T22:19:45;20.40;;;16.30;;
15669;SDS011;18524;45.190;5.732;2023-11-19T22:24:36;21.93;;;16.23;;
15669;SDS011;18524;45.190;5.732;2023-11-19T22:29:26;21.20;;;15.90;;
15669;SDS011;18524;45.190;5.732;2023-11-19T22:34:16;18.43;;;15.80;;
15669;SDS011;18524;45.190;5.732;2023-11-19T22:39:07;22.80;;;17.13;;
15669;SDS011;18524;45.190;5.732;2023-11-19T22:43:57;19.30;;;16.07;;
15669;SDS011;18524;45.190;5.732;2023-11-19T22:48:48;18.83;;;16.30;;
15669;SDS011;18524;45.190;5.732;2023-11-19T22:53:38;19.60;;;17.17;;
15669;SDS011;18524;45.190;5.732;2023-11-19T22:58:29;19.37;;;15.67;;
15669;SDS011;18524;45.190;5.732;2023-11-19T23:03:20;21.57;;;16.07;;
15669;SDS011;18524;45.190;5.732;2023-11-19T23:08:10;21.00;;;15.80;;
15669;SDS011;18524;45.190;5.732;2023-11-19T23:13:01;18.60;;;15.23;;
15669;SDS011;18524;45.190;5.732;2023-11-19T23:17:51;18.37;;;15.70;;
15669;SDS011;18524;45.190;5.732;2023-11-19T23:22:42;18.33;;;14.87;;
15669;SDS011;18524;45.190;5.732;2023-11-19T23:27:33;19.33;;;15.87;;
15669;SDS011;18524;45.190;5.732;2023-11-19T23:32:24;19.77;;;16.70;;
15669;SDS011;18524;45.190;5.732;2023-11-19T23:37:15;18.83;;;16.80;;
15669;SDS011;18524;45.190;5.732;2023-11-19T23:42:05;21.47;;;17.17;;
15669;SDS011;18524;45.190;5.732;2023-11-19T23:46:56;20.40;;;16.83;;
15669;SDS011;18524;45.190;5.732;2023-11-19T23:51:46;18.97;;;15.77;;
15669;SDS011;18524;45.190;5.732;2023-11-19T23:56:38;23.30;;;17.03;;
